createdAt,value
2023-05-14T00:00:16.648Z,2.40
2023-05-14T00:02:18.432Z,2.15
2023-05-14T00:04:20.168Z,2.38
2023-05-14T00:06:21.695Z,2.15
2023-05-14T00:08:23.283Z,2.28
2023-05-14T00:10:26.824Z,2.33
2023-05-14T00:12:29.204Z,2.50
2023-05-14T00:14:31.221Z,2.35
2023-05-14T00:16:32.865Z,2.33
2023-05-14T00:18:34.594Z,2.80
2023-05-14T00:20:36.377Z,2.25
2023-05-14T00:22:39.427Z,2.47
2023-05-14T00:24:41.048Z,2.28
2023-05-14T00:26:43.199Z,2.42
2023-05-14T00:28:45.237Z,2.13
2023-05-14T00:30:47.372Z,2.40
2023-05-14T00:32:50.634Z,2.40
2023-05-14T00:34:52.208Z,2.30
2023-05-14T00:36:53.847Z,2.30
2023-05-14T00:38:55.882Z,2.35
2023-05-14T00:40:57.904Z,2.30
2023-05-14T00:42:59.766Z,2.25
2023-05-14T00:45:01.407Z,2.40
2023-05-14T00:47:03.567Z,2.53
2023-05-14T00:49:05.485Z,3.03
2023-05-14T00:51:08.016Z,2.67
2023-05-14T00:53:10.752Z,2.80
2023-05-14T00:55:16.419Z,2.70
2023-05-14T00:57:19.109Z,2.28
2023-05-14T00:59:20.681Z,2.53
2023-05-14T01:01:22.533Z,2.30
2023-05-14T01:03:24.250Z,2.35
2023-05-14T01:05:31.008Z,2.50
2023-05-14T01:07:53.916Z,2.33
2023-05-14T01:10:08.383Z,2.70
2023-05-14T01:12:37.311Z,2.75
2023-05-14T01:14:55.296Z,2.33
2023-05-14T01:16:59.809Z,2.30
2023-05-14T01:19:02.682Z,2.70
2023-05-14T01:21:04.691Z,2.47
2023-05-14T01:23:07.286Z,2.80
2023-05-14T01:25:09.239Z,2.70
2023-05-14T01:27:10.952Z,2.40
2023-05-14T01:29:21.578Z,2.70
2023-05-14T01:31:28.032Z,2.22
2023-05-14T01:33:33.476Z,2.53
2023-05-14T01:35:35.411Z,2.38
2023-05-14T01:37:38.882Z,2.40
2023-05-14T01:39:41.967Z,2.20
2023-05-14T01:41:44.182Z,2.30
2023-05-14T01:43:45.883Z,2.33
2023-05-14T01:45:47.731Z,2.13
2023-05-14T01:47:50.048Z,2.35
2023-05-14T01:49:51.756Z,2.30
2023-05-14T01:51:53.432Z,2.63
2023-05-14T01:53:55.010Z,2.38
2023-05-14T01:55:56.781Z,2.60
2023-05-14T01:57:58.672Z,2.17
2023-05-14T02:00:00.653Z,2.53
2023-05-14T02:02:05.995Z,2.20
2023-05-14T02:04:07.670Z,2.42
2023-05-14T02:06:09.779Z,2.50
2023-05-14T02:08:11.313Z,2.85
2023-05-14T02:10:13.012Z,2.60
2023-05-14T02:12:14.893Z,2.55
2023-05-14T02:14:16.559Z,2.63
2023-05-14T02:16:19.175Z,2.53
2023-05-14T02:18:20.913Z,3.03
2023-05-14T02:20:23.184Z,2.83
2023-05-14T02:22:25.060Z,3.08
2023-05-14T02:24:27.214Z,2.55
2023-05-14T02:26:28.760Z,2.60
2023-05-14T02:28:30.697Z,2.45
2023-05-14T02:30:32.834Z,2.63
2023-05-14T02:32:34.536Z,2.67
2023-05-14T02:34:36.473Z,2.55
2023-05-14T02:36:38.033Z,2.42
2023-05-14T02:38:39.667Z,3.15
2023-05-14T02:40:41.475Z,2.70
2023-05-14T02:42:43.144Z,2.47
2023-05-14T02:44:44.807Z,2.83
2023-05-14T02:46:46.514Z,2.45
2023-05-14T02:48:48.110Z,2.50
2023-05-14T02:50:51.943Z,2.60
2023-05-14T02:52:53.658Z,2.78
2023-05-14T02:54:55.188Z,2.90
2023-05-14T02:56:56.750Z,2.75
2023-05-14T02:58:58.460Z,3.10
2023-05-14T03:01:00.490Z,2.60
2023-05-14T03:03:02.565Z,2.88
2023-05-14T03:05:05.009Z,2.90
2023-05-14T03:07:06.604Z,2.70
2023-05-14T03:09:08.160Z,2.53
2023-05-14T03:11:10.094Z,2.90
2023-05-14T03:13:12.230Z,2.78
2023-05-14T03:15:13.905Z,2.40
2023-05-14T03:17:15.578Z,2.90
2023-05-14T03:19:17.288Z,3.00
2023-05-14T03:21:19.108Z,2.90
2023-05-14T03:23:20.878Z,2.60
2023-05-14T03:25:22.482Z,3.10
2023-05-14T03:27:24.102Z,2.58
2023-05-14T03:29:25.717Z,2.80
2023-05-14T03:31:27.508Z,2.60
2023-05-14T03:33:31.375Z,3.10
2023-05-14T03:35:33.130Z,3.10
2023-05-14T03:37:34.740Z,2.75
2023-05-14T03:39:36.425Z,2.45
2023-05-14T03:41:39.734Z,2.55
2023-05-14T03:43:41.485Z,2.58
2023-05-14T03:45:44.021Z,2.88
2023-05-14T03:47:45.709Z,2.63
2023-05-14T03:49:47.335Z,2.75
2023-05-14T03:51:50.875Z,2.78
2023-05-14T03:53:52.526Z,2.40
2023-05-14T03:55:54.774Z,2.60
2023-05-14T03:57:56.390Z,2.33
2023-05-14T03:59:58.156Z,2.70
2023-05-14T04:01:59.825Z,2.40
2023-05-14T04:04:01.614Z,2.50
2023-05-14T04:06:03.558Z,2.90
2023-05-14T04:08:05.811Z,2.63
2023-05-14T04:10:08.198Z,2.75
2023-05-14T04:12:11.943Z,2.65
2023-05-14T04:14:13.683Z,2.58
2023-05-14T04:16:15.299Z,2.40
2023-05-14T04:18:17.298Z,2.65
2023-05-14T04:20:19.060Z,2.78
2023-05-14T04:22:20.723Z,2.40
2023-05-14T04:24:22.542Z,2.75
2023-05-14T04:26:24.190Z,2.97
2023-05-14T04:28:25.767Z,2.58
2023-05-14T04:30:27.285Z,3.20
2023-05-14T04:32:30.160Z,2.85
2023-05-14T04:34:31.756Z,3.00
2023-05-14T04:36:33.806Z,2.58
2023-05-14T04:38:35.363Z,3.10
2023-05-14T04:40:37.413Z,3.70
2023-05-14T04:42:39.268Z,3.00
2023-05-14T04:44:40.928Z,3.70
2023-05-14T04:46:42.467Z,3.65
2023-05-14T04:48:44.106Z,2.90
2023-05-14T04:50:45.955Z,2.78
2023-05-14T04:52:47.706Z,2.70
2023-05-14T04:54:49.498Z,2.70
2023-05-14T04:56:51.303Z,2.60
2023-05-14T04:58:52.934Z,2.40
2023-05-14T05:00:54.498Z,2.83
2023-05-14T05:02:56.101Z,2.63
2023-05-14T05:04:58.030Z,2.83
2023-05-14T05:06:59.619Z,2.65
2023-05-14T05:09:02.322Z,3.00
2023-05-14T05:11:04.719Z,2.63
2023-05-14T05:13:06.287Z,3.00
2023-05-14T05:15:09.456Z,2.78
2023-05-14T05:17:11.053Z,2.70
2023-05-14T05:19:12.773Z,2.53
2023-05-14T05:21:14.467Z,2.92
2023-05-14T05:23:16.092Z,2.50
2023-05-14T05:25:17.865Z,2.72
2023-05-14T05:27:20.986Z,2.75
2023-05-14T05:29:23.349Z,2.88
2023-05-14T05:31:25.238Z,2.45
2023-05-14T05:33:26.917Z,3.22
2023-05-14T05:35:28.672Z,2.60
2023-05-14T05:37:30.867Z,2.63
2023-05-14T05:39:34.749Z,3.00
2023-05-14T05:41:36.667Z,2.90
2023-05-14T05:43:38.665Z,2.60
2023-05-14T05:45:40.638Z,3.42
2023-05-14T05:47:42.290Z,2.78
2023-05-14T05:49:43.934Z,2.78
2023-05-14T05:51:45.457Z,3.40
2023-05-14T05:53:46.994Z,2.97
2023-05-14T05:55:48.572Z,3.10
2023-05-14T05:57:50.154Z,3.20
2023-05-14T05:59:51.702Z,2.95
2023-05-14T06:01:53.462Z,2.65
2023-05-14T06:03:55.098Z,2.50
2023-05-14T06:05:56.756Z,2.53
2023-05-14T06:07:58.749Z,3.00
2023-05-14T06:10:00.487Z,2.50
2023-05-14T06:12:02.153Z,2.60
2023-05-14T06:14:04.543Z,2.75
2023-05-14T06:18:07.885Z,2.45
2023-05-14T06:20:09.903Z,2.90
2023-05-14T06:22:11.699Z,2.50
2023-05-14T06:24:13.369Z,2.88
2023-05-14T06:26:15.346Z,2.65
2023-05-14T06:28:16.892Z,3.17
2023-05-14T06:30:18.542Z,2.85
2023-05-14T06:32:20.292Z,2.60
2023-05-14T06:34:22.010Z,2.38
2023-05-14T06:36:23.638Z,2.60
2023-05-14T06:38:25.632Z,2.90
2023-05-14T06:40:27.367Z,2.70
2023-05-14T06:42:29.128Z,2.60
2023-05-14T06:44:31.402Z,2.42
2023-05-14T06:46:33.188Z,2.63
2023-05-14T06:48:35.246Z,2.60
2023-05-14T06:50:36.909Z,2.90
2023-05-14T06:52:38.753Z,2.60
2023-05-14T06:54:40.395Z,2.80
2023-05-14T06:56:42.530Z,3.33
2023-05-14T06:58:45.616Z,3.00
2023-05-14T07:00:48.098Z,3.33
2023-05-14T07:02:49.744Z,3.17
2023-05-14T07:04:51.390Z,2.85
2023-05-14T07:06:52.992Z,3.00
2023-05-14T07:08:54.649Z,2.75
2023-05-14T07:10:57.297Z,3.13
2023-05-14T07:12:58.897Z,2.85
2023-05-14T07:15:00.517Z,3.00
2023-05-14T07:17:02.165Z,2.88
2023-05-14T07:19:03.899Z,2.90
2023-05-14T07:21:06.568Z,2.45
2023-05-14T07:23:08.324Z,2.63
2023-05-14T07:25:10.510Z,2.90
2023-05-14T07:29:14.298Z,2.75
2023-05-14T07:31:15.893Z,2.88
2023-05-14T07:33:17.689Z,2.78
2023-05-14T07:35:19.326Z,2.72
2023-05-14T07:37:23.890Z,3.00
2023-05-14T07:39:25.907Z,3.05
2023-05-14T07:41:27.618Z,3.03
2023-05-14T07:43:29.383Z,2.92
2023-05-14T07:45:31.026Z,2.72
2023-05-14T07:47:33.012Z,2.83
2023-05-14T07:49:35.317Z,2.40
2023-05-14T07:53:38.783Z,2.60
2023-05-14T07:55:41.567Z,2.80
2023-05-14T07:57:43.416Z,2.70
2023-05-14T07:59:45.038Z,2.65
2023-05-14T08:01:46.884Z,2.70
2023-05-14T08:03:48.879Z,2.97
2023-05-14T08:05:51.724Z,2.88
2023-05-14T08:07:53.322Z,2.80
2023-05-14T08:09:54.848Z,2.72
2023-05-14T08:11:56.678Z,2.60
2023-05-14T08:13:58.315Z,2.65
2023-05-14T08:16:00.233Z,2.58
2023-05-14T08:18:04.208Z,2.83
2023-05-14T08:20:07.360Z,2.53
2023-05-14T08:22:10.350Z,2.40
2023-05-14T08:24:12.307Z,2.35
2023-05-14T08:26:14.298Z,2.67
2023-05-14T08:28:16.167Z,2.55
2023-05-14T08:30:18.091Z,3.05
2023-05-14T08:32:23.668Z,2.53
2023-05-14T08:34:26.394Z,2.80
2023-05-14T08:36:27.964Z,2.40
2023-05-14T08:38:29.568Z,2.50
2023-05-14T08:40:31.191Z,2.45
2023-05-14T08:42:33.092Z,2.83
2023-05-14T08:44:43.640Z,2.17
2023-05-14T08:46:45.671Z,2.03
2023-05-14T08:48:52.828Z,2.28
2023-05-14T08:50:55.105Z,2.42
2023-05-14T08:52:56.813Z,2.40
2023-05-14T08:55:04.511Z,2.55
2023-05-14T08:57:09.675Z,2.33
2023-05-14T08:59:11.717Z,2.70
2023-05-14T09:01:13.384Z,2.17
2023-05-14T09:03:15.967Z,2.33
2023-05-14T09:05:19.442Z,2.50
2023-05-14T09:07:21.135Z,2.25
2023-05-14T09:09:23.417Z,2.60
2023-05-14T09:11:25.500Z,2.40
2023-05-14T09:13:28.429Z,2.33
2023-05-14T09:15:31.202Z,2.25
2023-05-14T09:17:33.715Z,2.40
2023-05-14T09:19:35.444Z,2.30
2023-05-14T09:21:37.175Z,2.58
2023-05-14T09:23:42.189Z,2.72
2023-05-14T09:25:43.843Z,2.63
2023-05-14T09:27:50.081Z,2.30
2023-05-14T09:29:51.870Z,2.25
2023-05-14T09:31:54.927Z,2.35
2023-05-14T09:33:56.602Z,2.15
2023-05-14T09:36:02.596Z,2.50
2023-05-14T09:38:04.580Z,2.45
2023-05-14T09:40:09.059Z,2.95
2023-05-14T09:42:10.780Z,2.72
2023-05-14T09:44:12.401Z,2.70
2023-05-14T09:46:14.098Z,2.85
2023-05-14T09:48:16.555Z,2.53
2023-05-14T09:50:18.238Z,2.53
2023-05-14T09:52:20.410Z,2.55
2023-05-14T09:56:24.404Z,2.42
2023-05-14T09:58:26.513Z,2.22
2023-05-14T10:02:38.306Z,2.20
2023-05-14T10:04:40.679Z,2.42
2023-05-14T10:08:48.960Z,3.25
2023-05-14T10:10:51.702Z,2.63
2023-05-14T10:12:57.759Z,5.63
2023-05-14T10:15:03.918Z,2.47
2023-05-14T10:17:06.270Z,2.20
2023-05-14T10:19:11.331Z,2.80
2023-05-14T10:21:15.025Z,2.95
2023-05-14T10:23:17.300Z,2.60
2023-05-14T10:25:19.458Z,3.35
2023-05-14T10:27:22.412Z,3.03
2023-05-14T10:29:38.036Z,2.92
2023-05-14T10:31:47.804Z,2.85
2023-05-14T10:33:50.892Z,2.53
2023-05-14T10:35:58.376Z,2.97
2023-05-14T10:37:59.997Z,3.80
2023-05-14T10:40:06.233Z,4.43
2023-05-14T10:42:22.013Z,3.17
2023-05-14T10:44:23.853Z,2.83
2023-05-14T10:46:25.608Z,4.20
2023-05-14T10:48:27.488Z,2.20
2023-05-14T10:50:29.585Z,2.25
2023-05-14T10:54:35.767Z,1.85
2023-05-14T10:56:37.564Z,3.20
2023-05-14T10:58:42.226Z,1.98
2023-05-14T11:00:48.637Z,2.38
2023-05-14T11:02:56.979Z,2.95
2023-05-14T11:05:06.859Z,2.72
2023-05-14T11:07:09.389Z,2.15
2023-05-14T11:09:17.508Z,2.95
2023-05-14T11:13:21.452Z,2.75
2023-05-14T11:15:24.836Z,3.10
2023-05-14T11:17:27.919Z,2.83
2023-05-14T11:19:29.590Z,2.47
2023-05-14T11:21:32.664Z,2.35
2023-05-14T11:23:34.357Z,2.47
2023-05-14T11:25:36.164Z,2.40
2023-05-14T11:27:39.108Z,2.20
2023-05-14T11:29:45.121Z,2.88
2023-05-14T11:31:47.546Z,2.40
2023-05-14T11:33:49.150Z,2.03
2023-05-14T11:35:51.956Z,2.53
2023-05-14T11:37:53.802Z,2.70
2023-05-14T11:39:56.479Z,2.67
2023-05-14T11:41:59.122Z,2.72
2023-05-14T11:44:03.344Z,2.40
2023-05-14T11:46:05.312Z,2.88
2023-05-14T11:48:15.841Z,2.60
2023-05-14T11:50:17.482Z,3.03
2023-05-14T11:52:19.545Z,2.78
2023-05-14T11:54:21.401Z,2.40
2023-05-14T11:56:23.240Z,2.90
2023-05-14T11:58:24.833Z,2.60
2023-05-14T12:00:26.539Z,2.63
2023-05-14T12:02:29.469Z,2.22
2023-05-14T12:04:31.971Z,2.70
2023-05-14T12:06:33.675Z,2.17
2023-05-14T12:08:35.262Z,2.15
2023-05-14T12:10:43.003Z,2.55
2023-05-14T12:12:47.552Z,1.80
2023-05-14T12:14:50.672Z,2.60
2023-05-14T12:16:52.277Z,2.00
2023-05-14T12:18:53.903Z,2.10
2023-05-14T12:20:55.927Z,2.10
2023-05-14T12:25:00.272Z,2.10
2023-05-14T12:27:02.988Z,2.22
2023-05-14T12:29:06.956Z,2.40
2023-05-14T12:31:08.683Z,2.33
2023-05-14T12:33:10.468Z,2.47
2023-05-14T12:35:12.149Z,2.30
2023-05-14T12:37:13.749Z,2.25
2023-05-14T12:39:15.318Z,2.22
2023-05-14T12:41:17.821Z,2.17
2023-05-14T12:43:20.065Z,2.58
2023-05-14T12:45:22.120Z,2.50
2023-05-14T12:47:23.798Z,2.30
2023-05-14T12:49:25.542Z,2.60
2023-05-14T12:51:27.489Z,3.10
2023-05-14T12:55:30.580Z,2.60
2023-05-14T12:57:32.345Z,2.60
2023-05-14T12:59:33.918Z,2.40
2023-05-14T13:01:35.541Z,2.63
2023-05-14T13:03:37.375Z,2.38
2023-05-14T13:07:40.694Z,2.10
2023-05-14T13:09:42.268Z,2.20
2023-05-14T13:11:43.804Z,1.95
2023-05-14T13:13:45.316Z,2.17
2023-05-14T13:15:46.999Z,2.17
2023-05-14T13:17:48.917Z,2.17
2023-05-14T13:21:52.070Z,2.20
2023-05-14T13:23:53.834Z,2.22
2023-05-14T13:25:55.629Z,1.83
2023-05-14T13:29:58.975Z,1.92
2023-05-14T13:32:00.532Z,2.78
2023-05-14T13:34:02.582Z,2.20
2023-05-14T13:36:04.794Z,2.38
2023-05-14T13:38:08.034Z,1.98
2023-05-14T13:40:10.537Z,2.22
2023-05-14T13:42:12.243Z,1.90
2023-05-14T13:44:13.814Z,1.80
2023-05-14T13:46:16.001Z,1.98
2023-05-14T13:48:17.785Z,1.75
2023-05-14T13:52:21.590Z,2.00
2023-05-14T13:54:23.210Z,2.00
2023-05-14T13:56:24.717Z,2.20
2023-05-14T13:58:26.689Z,1.90
2023-05-14T14:00:28.951Z,2.00
2023-05-14T14:02:31.852Z,2.85
2023-05-14T14:04:34.500Z,2.78
2023-05-14T14:06:36.086Z,3.03
2023-05-14T14:08:37.650Z,2.63
2023-05-14T14:10:41.102Z,3.03
2023-05-14T14:12:42.688Z,3.20
2023-05-14T14:14:44.454Z,2.20
2023-05-14T14:18:47.856Z,2.20
2023-05-14T14:22:51.185Z,2.00
2023-05-14T14:24:54.561Z,2.22
2023-05-14T14:26:56.169Z,2.10
2023-05-14T14:28:58.366Z,2.17
2023-05-14T14:31:00.152Z,1.80
2023-05-14T14:33:02.403Z,1.90
2023-05-14T14:35:04.302Z,1.83
2023-05-14T14:37:06.206Z,1.70
2023-05-14T14:39:07.767Z,2.30
2023-05-14T14:41:10.181Z,1.90
2023-05-14T14:43:11.937Z,1.75
2023-05-14T14:47:15.138Z,2.20
2023-05-14T14:49:16.773Z,3.00
2023-05-14T14:51:18.368Z,2.42
2023-05-14T14:53:21.621Z,1.60
2023-05-14T14:55:23.855Z,2.00
2023-05-14T14:57:26.636Z,2.22
2023-05-14T14:59:28.240Z,1.70
2023-05-14T15:01:30.424Z,2.00
2023-05-14T15:03:32.574Z,1.83
2023-05-14T15:05:34.743Z,2.22
2023-05-14T15:07:36.732Z,2.13
2023-05-14T15:09:38.572Z,2.40
2023-05-14T15:11:40.625Z,3.10
2023-05-14T15:13:42.965Z,3.47
2023-05-14T15:15:45.010Z,3.72
2023-05-14T15:17:46.631Z,3.30
2023-05-14T15:19:48.269Z,3.13
2023-05-14T15:21:50.060Z,3.42
2023-05-14T15:25:53.776Z,3.88
2023-05-14T15:27:55.441Z,3.58
2023-05-14T15:29:57.004Z,2.20
2023-05-14T15:31:58.902Z,2.30
2023-05-14T15:36:03.061Z,2.05
2023-05-14T15:38:04.703Z,2.15
2023-05-14T15:40:10.339Z,1.92
2023-05-14T15:42:11.997Z,1.92
2023-05-14T15:44:13.718Z,2.10
2023-05-14T15:46:15.308Z,1.90
2023-05-14T15:48:17.016Z,1.90
2023-05-14T15:50:18.763Z,2.10
2023-05-14T15:52:21.358Z,2.00
2023-05-14T15:54:23.081Z,2.00
2023-05-14T15:56:25.467Z,1.98
2023-05-14T15:58:28.589Z,1.90
2023-05-14T16:00:36.157Z,1.83
2023-05-14T16:02:39.333Z,2.17
2023-05-14T16:04:41.569Z,2.10
2023-05-14T16:08:46.811Z,2.25
2023-05-14T16:10:48.364Z,2.38
2023-05-14T16:12:49.948Z,2.20
2023-05-14T16:14:51.573Z,2.90
2023-05-14T16:16:54.245Z,3.03
2023-05-14T16:18:56.013Z,2.90
2023-05-14T16:20:58.268Z,3.22
2023-05-14T16:22:59.876Z,2.67
2023-05-14T16:25:03.404Z,3.42
2023-05-14T16:27:06.119Z,2.17
2023-05-14T16:29:07.767Z,1.85
2023-05-14T16:31:09.412Z,1.77
2023-05-14T16:33:11.818Z,2.05
2023-05-14T16:35:13.738Z,1.88
2023-05-14T16:37:16.595Z,1.65
2023-05-14T16:39:18.295Z,1.63
2023-05-14T16:43:22.997Z,2.10
2023-05-14T16:45:25.135Z,1.92
2023-05-14T16:47:27.016Z,1.67
2023-05-14T16:49:28.776Z,1.83
2023-05-14T16:51:30.382Z,1.92
2023-05-14T16:53:32.048Z,1.55
2023-05-14T16:55:33.675Z,1.80
2023-05-14T16:57:35.505Z,1.70
2023-05-14T17:01:38.818Z,1.90
2023-05-14T17:03:40.808Z,1.75
2023-05-14T17:07:44.028Z,1.90
2023-05-14T17:09:45.705Z,2.42
2023-05-14T17:11:47.412Z,1.58
2023-05-14T17:13:49.026Z,1.60
2023-05-14T17:15:50.862Z,1.90
2023-05-14T17:17:52.568Z,1.92
2023-05-14T17:19:54.140Z,1.98
2023-05-14T17:21:55.831Z,2.17
2023-05-14T17:23:57.858Z,2.55
2023-05-14T17:26:01.126Z,2.85
2023-05-14T17:30:04.803Z,2.95
2023-05-14T17:32:07.865Z,3.03
2023-05-14T17:34:09.555Z,3.60
2023-05-14T17:36:11.166Z,3.50
2023-05-14T17:38:12.969Z,3.08
2023-05-14T17:40:14.612Z,3.92
2023-05-14T17:42:17.667Z,4.03
2023-05-14T17:44:19.376Z,3.60
2023-05-14T17:46:21.367Z,5.45
2023-05-14T17:50:25.585Z,3.13
2023-05-14T17:52:27.716Z,2.78
2023-05-14T17:54:29.606Z,2.70
2023-05-14T17:56:31.185Z,3.03
2023-05-14T17:58:32.985Z,2.20
2023-05-14T18:00:34.979Z,2.80
2023-05-14T18:02:36.607Z,2.60
2023-05-14T18:04:38.195Z,2.30
2023-05-14T18:06:39.804Z,2.17
2023-05-14T18:08:41.677Z,2.20
2023-05-14T18:10:43.393Z,2.53
2023-05-14T18:12:44.944Z,2.50
2023-05-14T18:14:46.590Z,2.50
2023-05-14T18:16:48.296Z,2.20
2023-05-14T18:18:53.408Z,2.35
2023-05-14T18:20:55.165Z,2.22
2023-05-14T18:22:56.752Z,2.45
2023-05-14T18:24:58.614Z,2.22
2023-05-14T18:27:00.486Z,2.55
2023-05-14T18:29:02.068Z,2.65
2023-05-14T18:31:06.884Z,3.03
2023-05-14T18:33:08.493Z,3.72
2023-05-14T18:35:10.642Z,3.45
2023-05-14T18:37:12.254Z,3.38
2023-05-14T18:39:13.805Z,3.13
2023-05-14T18:41:15.436Z,3.47
2023-05-14T18:43:18.410Z,3.15
2023-05-14T18:45:20.223Z,3.05
2023-05-14T18:47:21.879Z,2.13
2023-05-14T18:49:23.606Z,2.17
2023-05-14T18:51:25.334Z,2.60
2023-05-14T18:53:27.220Z,3.22
2023-05-14T18:55:28.975Z,3.03
2023-05-14T18:57:32.597Z,2.72
2023-05-14T18:59:34.602Z,3.53
2023-05-14T19:01:36.370Z,2.80
2023-05-14T19:03:38.403Z,2.22
2023-05-14T19:05:40.093Z,2.60
2023-05-14T19:07:42.826Z,2.53
2023-05-14T19:09:44.460Z,2.60
2023-05-14T19:11:46.837Z,3.53
2023-05-14T19:15:51.549Z,2.83
2023-05-14T19:17:54.033Z,2.58
2023-05-14T19:19:56.034Z,2.67
2023-05-14T19:21:58.203Z,2.53
2023-05-14T19:24:00.208Z,2.85
2023-05-14T19:26:02.042Z,2.72
2023-05-14T19:28:05.008Z,3.05
2023-05-14T19:30:07.404Z,2.90
2023-05-14T19:34:11.337Z,3.25
2023-05-14T19:36:12.913Z,3.05
2023-05-14T19:38:14.906Z,2.72
2023-05-14T19:40:16.599Z,3.33
2023-05-14T19:42:18.418Z,3.17
2023-05-14T19:44:20.177Z,3.00
2023-05-14T19:46:21.811Z,2.50
2023-05-14T19:48:23.552Z,2.90
2023-05-14T19:50:25.783Z,2.58
2023-05-14T19:52:27.470Z,2.53
2023-05-14T19:54:29.590Z,2.42
2023-05-14T19:56:31.361Z,2.20
2023-05-14T19:58:32.995Z,2.22
2023-05-14T20:00:34.593Z,2.28
2023-05-14T20:02:36.380Z,2.22
2023-05-14T20:04:39.977Z,2.30
2023-05-14T20:06:45.314Z,2.45
2023-05-14T20:08:46.929Z,2.50
2023-05-14T20:10:48.649Z,2.60
2023-05-14T20:12:50.381Z,2.13
2023-05-14T20:14:52.468Z,2.58
2023-05-14T20:16:54.562Z,2.38
2023-05-14T20:18:56.683Z,2.60
2023-05-14T20:20:58.389Z,2.47
2023-05-14T20:23:00.161Z,2.45
2023-05-14T20:25:01.739Z,1.98
2023-05-14T20:27:03.722Z,2.60
2023-05-14T20:29:05.720Z,2.33
2023-05-14T20:31:07.922Z,1.98
2023-05-14T20:35:11.198Z,2.30
2023-05-14T20:37:13.046Z,2.33
2023-05-14T20:39:16.365Z,2.30
2023-05-14T20:41:18.358Z,2.47
2023-05-14T20:43:20.267Z,2.47
2023-05-14T20:45:21.871Z,2.25
2023-05-14T20:47:26.536Z,2.60
2023-05-14T20:49:28.506Z,2.58
2023-05-14T20:51:30.304Z,2.53
2023-05-14T20:53:33.262Z,2.55
2023-05-14T20:55:35.215Z,2.50
2023-05-14T20:57:37.342Z,2.40
2023-05-14T20:59:39.135Z,2.20
2023-05-14T21:01:42.538Z,1.90
2023-05-14T21:03:44.386Z,1.98
2023-05-14T21:05:46.225Z,2.28
2023-05-14T21:07:48.256Z,1.90
2023-05-14T21:09:52.206Z,2.03
2023-05-14T21:11:54.321Z,2.25
2023-05-14T21:13:55.982Z,2.10
2023-05-14T21:15:57.612Z,2.08
2023-05-14T21:17:59.273Z,2.30
2023-05-14T21:20:00.985Z,1.90
2023-05-14T21:22:02.554Z,1.85
2023-05-14T21:24:04.404Z,2.00
2023-05-14T21:26:06.127Z,2.00
2023-05-14T21:28:07.739Z,1.50
2023-05-14T21:30:09.900Z,1.73
2023-05-14T21:34:13.433Z,1.90
2023-05-14T21:36:15.214Z,1.90
2023-05-14T21:38:16.959Z,1.92
2023-05-14T21:40:18.534Z,2.08
2023-05-14T21:42:21.139Z,1.95
2023-05-14T21:44:22.917Z,2.00
2023-05-14T21:46:25.672Z,2.35
2023-05-14T21:48:28.493Z,2.40
2023-05-14T21:50:30.374Z,2.80
2023-05-14T21:52:31.978Z,2.38
2023-05-14T21:54:33.565Z,2.30
2023-05-14T21:56:36.021Z,2.35
2023-05-14T22:00:39.401Z,2.50
2023-05-14T22:02:41.030Z,2.63
2023-05-14T22:04:42.602Z,2.75
2023-05-14T22:06:44.286Z,1.90
2023-05-14T22:08:45.904Z,1.80
2023-05-14T22:10:47.482Z,1.98
2023-05-14T22:12:49.115Z,1.90
2023-05-14T22:14:50.688Z,1.65
2023-05-14T22:16:52.363Z,1.67
2023-05-14T22:18:54.044Z,1.98
2023-05-14T22:20:55.599Z,2.10
2023-05-14T22:22:57.211Z,1.98
2023-05-14T22:24:58.805Z,1.83
2023-05-14T22:27:00.364Z,1.75
2023-05-14T22:29:01.946Z,1.70
2023-05-14T22:31:04.159Z,1.90
2023-05-14T22:33:05.779Z,1.95
2023-05-14T22:35:07.796Z,1.90
2023-05-14T22:37:09.458Z,1.95
2023-05-14T22:39:12.743Z,1.58
2023-05-14T22:41:17.339Z,1.67
2023-05-14T22:43:18.979Z,1.80
2023-05-14T22:45:20.616Z,2.10
2023-05-14T22:47:22.236Z,1.85
2023-05-14T22:49:23.977Z,2.30
2023-05-14T22:51:25.992Z,2.22
2023-05-14T22:53:27.566Z,2.20
2023-05-14T22:55:29.774Z,2.45
2023-05-14T22:57:32.171Z,2.00
2023-05-14T22:59:33.807Z,2.58
2023-05-14T23:01:35.626Z,3.15
2023-05-14T23:03:37.222Z,3.10
2023-05-14T23:05:38.876Z,2.83
2023-05-14T23:07:40.597Z,3.08
2023-05-14T23:09:42.173Z,3.08
2023-05-14T23:11:43.760Z,2.17
2023-05-14T23:13:45.330Z,2.50
2023-05-14T23:15:47.290Z,2.80
2023-05-14T23:17:49.121Z,2.20
2023-05-14T23:19:50.922Z,2.50
2023-05-14T23:21:52.456Z,2.00
2023-05-14T23:23:54.033Z,1.90
2023-05-14T23:25:56.152Z,1.92
2023-05-14T23:27:57.717Z,1.77
2023-05-14T23:29:59.340Z,1.92
2023-05-14T23:32:00.915Z,1.67
2023-05-14T23:34:02.853Z,1.80
2023-05-14T23:36:04.967Z,1.60
2023-05-14T23:38:07.381Z,1.75
2023-05-14T23:40:09.566Z,1.90
2023-05-14T23:42:11.120Z,1.73
2023-05-14T23:44:12.746Z,1.83
2023-05-14T23:46:15.326Z,1.60
2023-05-14T23:48:18.106Z,1.90
2023-05-14T23:52:21.267Z,1.92
2023-05-14T23:54:22.934Z,2.75
2023-05-14T23:56:25.871Z,1.85
2023-05-14T23:58:29.830Z,2.15
